Aviation Digital Data Service (ADDS)

Output produced by TAFs form (1704 UTC 29 May 2017)
found at http://www.aviationweather.gov/adds/tafs/
 
Forecast for: RJSF (FUKUSHIMA ARPT , JP)
Text: TAF RJSF 291110Z 2912/3018 14005KT 9999 FEW030
Forecast period: 1200 to 2100 UTC 29 May 2017
Forecast type: FROM: standard forecast or significant change
Winds: from the SE (140 degrees) at 6 MPH (5 knots; 2.6 m/s)
Visibility: 6 or more miles (10+ km)
Clouds: few clouds at 3000 feet AGL
Weather: no significant weather forecast for this period
Text: BECMG 2921/2923 36007KT
Forecast period: 2100 UTC 29 May 2017 to 0900 UTC 30 May 2017
Forecast type: BECOMING: Conditions expected to become as follows by 2300 UTC 29 May 2017
Winds: from the N (360 degrees) at 8 MPH (7 knots; 3.6 m/s)
Visibility: 6 or more miles (10+ km)
Clouds: few clouds at 3000 feet AGL
Weather: no significant weather forecast for this period
Text: BECMG 3009/3012 14005KT
Forecast period: 0900 to 1800 UTC 30 May 2017
Forecast type: BECOMING: Conditions expected to become as follows by 1200 UTC 30 May 2017
Winds: from the SE (140 degrees) at 6 MPH (5 knots; 2.6 m/s)
Visibility: 6 or more miles (10+ km)
Clouds: few clouds at 3000 feet AGL
Weather: no significant weather forecast for this period